sensor_id;sensor_type;location;lat;lon;timestamp;P1;durP1;ratioP1;P2;durP2;ratioP2
21564;SDS011;10943;48.738;9.320;2022-07-23T00:00:23;6.43;;;4.38;;
21564;SDS011;10943;48.738;9.320;2022-07-23T00:03:02;6.75;;;4.43;;
21564;SDS011;10943;48.738;9.320;2022-07-23T00:05:29;6.50;;;4.10;;
21564;SDS011;10943;48.738;9.320;2022-07-23T00:07:57;7.78;;;4.35;;
21564;SDS011;10943;48.738;9.320;2022-07-23T00:10:24;6.10;;;4.05;;
21564;SDS011;10943;48.738;9.320;2022-07-23T00:12:51;7.25;;;4.10;;
21564;SDS011;10943;48.738;9.320;2022-07-23T00:15:19;5.95;;;4.20;;
21564;SDS011;10943;48.738;9.320;2022-07-23T00:17:46;8.30;;;4.10;;
21564;SDS011;10943;48.738;9.320;2022-07-23T00:20:14;7.05;;;3.95;;
21564;SDS011;10943;48.738;9.320;2022-07-23T00:22:45;6.07;;;3.65;;
21564;SDS011;10943;48.738;9.320;2022-07-23T00:25:22;6.55;;;3.50;;
21564;SDS011;10943;48.738;9.320;2022-07-23T00:27:54;5.47;;;3.45;;
21564;SDS011;10943;48.738;9.320;2022-07-23T00:30:23;4.88;;;3.38;;
21564;SDS011;10943;48.738;9.320;2022-07-23T00:33:02;6.05;;;3.40;;
21564;SDS011;10943;48.738;9.320;2022-07-23T00:35:34;5.47;;;3.40;;
21564;SDS011;10943;48.738;9.320;2022-07-23T00:38:08;6.97;;;3.47;;
21564;SDS011;10943;48.738;9.320;2022-07-23T00:40:36;5.80;;;3.30;;
21564;SDS011;10943;48.738;9.320;2022-07-23T00:43:06;4.68;;;3.15;;
21564;SDS011;10943;48.738;9.320;2022-07-23T00:45:34;6.13;;;3.67;;
21564;SDS011;10943;48.738;9.320;2022-07-23T00:48:02;5.97;;;3.20;;
21564;SDS011;10943;48.738;9.320;2022-07-23T00:50:30;4.75;;;3.17;;
21564;SDS011;10943;48.738;9.320;2022-07-23T00:52:58;6.18;;;3.10;;
21564;SDS011;10943;48.738;9.320;2022-07-23T00:55:27;5.65;;;3.00;;
21564;SDS011;10943;48.738;9.320;2022-07-23T00:57:55;6.40;;;3.35;;
21564;SDS011;10943;48.738;9.320;2022-07-23T01:00:24;8.20;;;2.85;;
21564;SDS011;10943;48.738;9.320;2022-07-23T01:02:51;6.25;;;2.80;;
21564;SDS011;10943;48.738;9.320;2022-07-23T01:05:19;4.68;;;2.70;;
21564;SDS011;10943;48.738;9.320;2022-07-23T01:07:49;3.75;;;2.60;;
21564;SDS011;10943;48.738;9.320;2022-07-23T01:10:22;4.25;;;2.70;;
21564;SDS011;10943;48.738;9.320;2022-07-23T01:13:01;4.63;;;2.55;;
21564;SDS011;10943;48.738;9.320;2022-07-23T01:15:34;4.93;;;2.85;;
21564;SDS011;10943;48.738;9.320;2022-07-23T01:18:04;4.53;;;2.65;;
21564;SDS011;10943;48.738;9.320;2022-07-23T01:20:50;4.63;;;2.67;;
21564;SDS011;10943;48.738;9.320;2022-07-23T01:23:31;5.60;;;2.47;;
21564;SDS011;10943;48.738;9.320;2022-07-23T01:25:59;6.65;;;2.88;;
21564;SDS011;10943;48.738;9.320;2022-07-23T01:28:27;5.68;;;2.85;;
21564;SDS011;10943;48.738;9.320;2022-07-23T01:30:57;4.95;;;2.45;;
21564;SDS011;10943;48.738;9.320;2022-07-23T01:33:29;4.93;;;2.60;;
21564;SDS011;10943;48.738;9.320;2022-07-23T01:35:56;7.53;;;3.25;;
21564;SDS011;10943;48.738;9.320;2022-07-23T01:38:25;5.18;;;2.90;;
21564;SDS011;10943;48.738;9.320;2022-07-23T01:40:53;5.60;;;2.90;;
21564;SDS011;10943;48.738;9.320;2022-07-23T01:43:25;5.32;;;3.25;;
21564;SDS011;10943;48.738;9.320;2022-07-23T01:45:53;6.72;;;3.05;;
21564;SDS011;10943;48.738;9.320;2022-07-23T01:48:23;5.55;;;2.85;;
21564;SDS011;10943;48.738;9.320;2022-07-23T01:51:11;5.68;;;3.53;;
21564;SDS011;10943;48.738;9.320;2022-07-23T01:53:50;5.95;;;3.20;;
21564;SDS011;10943;48.738;9.320;2022-07-23T01:56:20;4.70;;;3.00;;
21564;SDS011;10943;48.738;9.320;2022-07-23T01:58:49;5.72;;;2.90;;
21564;SDS011;10943;48.738;9.320;2022-07-23T02:01:18;5.13;;;3.08;;
21564;SDS011;10943;48.738;9.320;2022-07-23T02:04:07;4.50;;;2.97;;
21564;SDS011;10943;48.738;9.320;2022-07-23T02:06:37;5.70;;;3.40;;
21564;SDS011;10943;48.738;9.320;2022-07-23T02:09:05;5.45;;;3.00;;
21564;SDS011;10943;48.738;9.320;2022-07-23T02:11:35;6.15;;;3.58;;
21564;SDS011;10943;48.738;9.320;2022-07-23T02:14:03;6.82;;;3.35;;
21564;SDS011;10943;48.738;9.320;2022-07-23T02:16:31;4.95;;;3.25;;
21564;SDS011;10943;48.738;9.320;2022-07-23T02:19:02;4.75;;;3.40;;
21564;SDS011;10943;48.738;9.320;2022-07-23T02:21:31;4.85;;;3.28;;
21564;SDS011;10943;48.738;9.320;2022-07-23T02:24:18;7.13;;;3.30;;
21564;SDS011;10943;48.738;9.320;2022-07-23T02:26:59;6.50;;;3.13;;
21564;SDS011;10943;48.738;9.320;2022-07-23T02:29:26;4.82;;;3.38;;
21564;SDS011;10943;48.738;9.320;2022-07-23T02:31:54;6.20;;;3.38;;
21564;SDS011;10943;48.738;9.320;2022-07-23T02:34:22;6.60;;;3.33;;
21564;SDS011;10943;48.738;9.320;2022-07-23T02:36:51;4.95;;;3.35;;
21564;SDS011;10943;48.738;9.320;2022-07-23T02:39:21;5.65;;;3.65;;
21564;SDS011;10943;48.738;9.320;2022-07-23T02:41:51;5.10;;;2.95;;
21564;SDS011;10943;48.738;9.320;2022-07-23T02:44:18;5.22;;;3.33;;
21564;SDS011;10943;48.738;9.320;2022-07-23T02:46:50;5.32;;;3.28;;
21564;SDS011;10943;48.738;9.320;2022-07-23T02:49:17;6.32;;;3.53;;
21564;SDS011;10943;48.738;9.320;2022-07-23T02:51:48;6.15;;;3.22;;
21564;SDS011;10943;48.738;9.320;2022-07-23T02:54:16;6.55;;;3.20;;
21564;SDS011;10943;48.738;9.320;2022-07-23T02:56:44;5.15;;;3.25;;
21564;SDS011;10943;48.738;9.320;2022-07-23T02:59:12;5.20;;;3.33;;
21564;SDS011;10943;48.738;9.320;2022-07-23T03:01:41;4.68;;;3.28;;
21564;SDS011;10943;48.738;9.320;2022-07-23T03:04:15;5.57;;;3.30;;
21564;SDS011;10943;48.738;9.320;2022-07-23T03:06:43;5.45;;;3.60;;
21564;SDS011;10943;48.738;9.320;2022-07-23T03:09:13;5.10;;;3.38;;
21564;SDS011;10943;48.738;9.320;2022-07-23T03:11:57;5.18;;;3.63;;
21564;SDS011;10943;48.738;9.320;2022-07-23T03:14:24;6.40;;;3.33;;
21564;SDS011;10943;48.738;9.320;2022-07-23T03:16:53;5.70;;;3.45;;
21564;SDS011;10943;48.738;9.320;2022-07-23T03:19:21;5.82;;;3.50;;
21564;SDS011;10943;48.738;9.320;2022-07-23T03:21:49;5.47;;;3.40;;
21564;SDS011;10943;48.738;9.320;2022-07-23T03:24:17;5.50;;;3.70;;
21564;SDS011;10943;48.738;9.320;2022-07-23T03:26:45;5.47;;;3.70;;
21564;SDS011;10943;48.738;9.320;2022-07-23T03:29:12;6.15;;;3.80;;
21564;SDS011;10943;48.738;9.320;2022-07-23T03:31:41;7.25;;;3.65;;
21564;SDS011;10943;48.738;9.320;2022-07-23T03:34:10;5.68;;;3.63;;
21564;SDS011;10943;48.738;9.320;2022-07-23T03:36:48;6.35;;;3.92;;
21564;SDS011;10943;48.738;9.320;2022-07-23T03:39:16;5.43;;;3.70;;
21564;SDS011;10943;48.738;9.320;2022-07-23T03:41:45;6.90;;;4.03;;
21564;SDS011;10943;48.738;9.320;2022-07-23T03:44:13;5.13;;;3.88;;
21564;SDS011;10943;48.738;9.320;2022-07-23T03:46:45;6.25;;;4.38;;
21564;SDS011;10943;48.738;9.320;2022-07-23T03:49:13;5.95;;;4.20;;
21564;SDS011;10943;48.738;9.320;2022-07-23T03:51:41;5.50;;;4.20;;
21564;SDS011;10943;48.738;9.320;2022-07-23T03:54:09;5.35;;;4.03;;
21564;SDS011;10943;48.738;9.320;2022-07-23T03:56:37;6.22;;;4.13;;
21564;SDS011;10943;48.738;9.320;2022-07-23T03:59:05;7.60;;;4.10;;
21564;SDS011;10943;48.738;9.320;2022-07-23T04:01:33;5.75;;;3.90;;
21564;SDS011;10943;48.738;9.320;2022-07-23T04:04:26;7.05;;;4.10;;
21564;SDS011;10943;48.738;9.320;2022-07-23T04:06:55;5.45;;;3.80;;
21564;SDS011;10943;48.738;9.320;2022-07-23T04:09:23;6.75;;;3.97;;
21564;SDS011;10943;48.738;9.320;2022-07-23T04:11:51;8.07;;;4.30;;
21564;SDS011;10943;48.738;9.320;2022-07-23T04:14:19;6.50;;;4.30;;
21564;SDS011;10943;48.738;9.320;2022-07-23T04:16:47;7.07;;;4.50;;
21564;SDS011;10943;48.738;9.320;2022-07-23T04:19:15;6.03;;;3.83;;
21564;SDS011;10943;48.738;9.320;2022-07-23T04:21:56;6.20;;;4.20;;
21564;SDS011;10943;48.738;9.320;2022-07-23T04:24:42;7.88;;;4.50;;
21564;SDS011;10943;48.738;9.320;2022-07-23T04:27:10;8.07;;;4.20;;
21564;SDS011;10943;48.738;9.320;2022-07-23T04:29:39;7.40;;;4.43;;
21564;SDS011;10943;48.738;9.320;2022-07-23T04:32:08;5.47;;;4.15;;
21564;SDS011;10943;48.738;9.320;2022-07-23T04:34:38;6.97;;;4.60;;
21564;SDS011;10943;48.738;9.320;2022-07-23T04:37:07;5.72;;;4.10;;
21564;SDS011;10943;48.738;9.320;2022-07-23T04:39:36;6.13;;;4.10;;
21564;SDS011;10943;48.738;9.320;2022-07-23T04:42:24;6.32;;;4.05;;
21564;SDS011;10943;48.738;9.320;2022-07-23T04:44:52;6.03;;;4.25;;
21564;SDS011;10943;48.738;9.320;2022-07-23T04:47:36;7.30;;;4.40;;
21564;SDS011;10943;48.738;9.320;2022-07-23T04:50:12;5.50;;;3.75;;
21564;SDS011;10943;48.738;9.320;2022-07-23T04:52:44;7.55;;;4.55;;
21564;SDS011;10943;48.738;9.320;2022-07-23T04:55:12;6.13;;;4.18;;
21564;SDS011;10943;48.738;9.320;2022-07-23T04:57:40;7.40;;;4.20;;
21564;SDS011;10943;48.738;9.320;2022-07-23T05:00:14;6.32;;;4.28;;
21564;SDS011;10943;48.738;9.320;2022-07-23T05:02:51;6.10;;;3.88;;
21564;SDS011;10943;48.738;9.320;2022-07-23T05:05:33;7.03;;;4.28;;
21564;SDS011;10943;48.738;9.320;2022-07-23T05:08:10;6.68;;;4.00;;
21564;SDS011;10943;48.738;9.320;2022-07-23T05:10:39;8.35;;;4.07;;
21564;SDS011;10943;48.738;9.320;2022-07-23T05:13:16;6.93;;;3.83;;
21564;SDS011;10943;48.738;9.320;2022-07-23T05:15:50;6.05;;;3.70;;
21564;SDS011;10943;48.738;9.320;2022-07-23T05:18:27;7.38;;;4.20;;
21564;SDS011;10943;48.738;9.320;2022-07-23T05:20:55;5.25;;;4.20;;
21564;SDS011;10943;48.738;9.320;2022-07-23T05:23:23;7.05;;;3.95;;
21564;SDS011;10943;48.738;9.320;2022-07-23T05:25:52;5.68;;;4.13;;
21564;SDS011;10943;48.738;9.320;2022-07-23T05:28:20;5.78;;;4.13;;
21564;SDS011;10943;48.738;9.320;2022-07-23T05:30:51;6.50;;;4.50;;
21564;SDS011;10943;48.738;9.320;2022-07-23T05:33:20;6.05;;;4.20;;
21564;SDS011;10943;48.738;9.320;2022-07-23T05:35:49;6.32;;;4.40;;
21564;SDS011;10943;48.738;9.320;2022-07-23T05:38:31;7.15;;;4.50;;
21564;SDS011;10943;48.738;9.320;2022-07-23T05:41:03;7.60;;;4.53;;
21564;SDS011;10943;48.738;9.320;2022-07-23T05:43:34;6.18;;;4.63;;
21564;SDS011;10943;48.738;9.320;2022-07-23T05:46:09;5.95;;;4.40;;
21564;SDS011;10943;48.738;9.320;2022-07-23T05:48:54;7.45;;;4.68;;
21564;SDS011;10943;48.738;9.320;2022-07-23T05:51:43;6.45;;;3.97;;
21564;SDS011;10943;48.738;9.320;2022-07-23T05:54:14;7.28;;;4.60;;
21564;SDS011;10943;48.738;9.320;2022-07-23T05:56:46;7.07;;;4.70;;
21564;SDS011;10943;48.738;9.320;2022-07-23T05:59:21;6.82;;;5.18;;
21564;SDS011;10943;48.738;9.320;2022-07-23T06:01:55;8.48;;;4.80;;
21564;SDS011;10943;48.738;9.320;2022-07-23T06:04:24;7.57;;;4.75;;
21564;SDS011;10943;48.738;9.320;2022-07-23T06:07:15;7.13;;;4.93;;
21564;SDS011;10943;48.738;9.320;2022-07-23T06:09:43;7.88;;;4.90;;
21564;SDS011;10943;48.738;9.320;2022-07-23T06:12:15;8.82;;;4.95;;
21564;SDS011;10943;48.738;9.320;2022-07-23T06:14:44;9.65;;;5.05;;
21564;SDS011;10943;48.738;9.320;2022-07-23T06:17:25;8.27;;;5.10;;
21564;SDS011;10943;48.738;9.320;2022-07-23T06:20:13;6.15;;;4.88;;
21564;SDS011;10943;48.738;9.320;2022-07-23T06:22:44;7.10;;;4.93;;
21564;SDS011;10943;48.738;9.320;2022-07-23T06:25:28;6.00;;;4.88;;
21564;SDS011;10943;48.738;9.320;2022-07-23T06:27:58;8.75;;;4.82;;
21564;SDS011;10943;48.738;9.320;2022-07-23T06:30:41;6.45;;;4.65;;
21564;SDS011;10943;48.738;9.320;2022-07-23T06:33:28;8.40;;;4.97;;
21564;SDS011;10943;48.738;9.320;2022-07-23T06:35:59;7.25;;;4.97;;
21564;SDS011;10943;48.738;9.320;2022-07-23T06:38:27;7.45;;;4.75;;
21564;SDS011;10943;48.738;9.320;2022-07-23T06:40:56;9.18;;;5.00;;
21564;SDS011;10943;48.738;9.320;2022-07-23T06:43:28;6.85;;;4.90;;
21564;SDS011;10943;48.738;9.320;2022-07-23T06:45:59;6.75;;;4.60;;
21564;SDS011;10943;48.738;9.320;2022-07-23T06:48:28;6.47;;;4.55;;
21564;SDS011;10943;48.738;9.320;2022-07-23T06:51:04;5.93;;;4.63;;
21564;SDS011;10943;48.738;9.320;2022-07-23T06:53:32;6.25;;;4.60;;
21564;SDS011;10943;48.738;9.320;2022-07-23T06:56:00;7.85;;;4.70;;
21564;SDS011;10943;48.738;9.320;2022-07-23T06:58:29;6.72;;;4.57;;
21564;SDS011;10943;48.738;9.320;2022-07-23T07:01:01;8.27;;;4.95;;
21564;SDS011;10943;48.738;9.320;2022-07-23T07:03:30;8.68;;;4.90;;
21564;SDS011;10943;48.738;9.320;2022-07-23T07:05:59;6.65;;;4.25;;
21564;SDS011;10943;48.738;9.320;2022-07-23T07:08:29;7.00;;;4.72;;
21564;SDS011;10943;48.738;9.320;2022-07-23T07:10:58;6.60;;;4.22;;
21564;SDS011;10943;48.738;9.320;2022-07-23T07:14:17;7.30;;;4.90;;
21564;SDS011;10943;48.738;9.320;2022-07-23T07:16:52;6.65;;;4.50;;
21564;SDS011;10943;48.738;9.320;2022-07-23T07:19:21;5.75;;;4.38;;
21564;SDS011;10943;48.738;9.320;2022-07-23T07:21:50;9.38;;;4.18;;
21564;SDS011;10943;48.738;9.320;2022-07-23T07:24:19;6.05;;;4.15;;
21564;SDS011;10943;48.738;9.320;2022-07-23T07:26:46;5.97;;;4.22;;
21564;SDS011;10943;48.738;9.320;2022-07-23T07:29:14;7.97;;;4.70;;
21564;SDS011;10943;48.738;9.320;2022-07-23T07:31:42;9.35;;;4.78;;
21564;SDS011;10943;48.738;9.320;2022-07-23T07:34:10;7.32;;;4.43;;
21564;SDS011;10943;48.738;9.320;2022-07-23T07:36:41;6.85;;;4.30;;
21564;SDS011;10943;48.738;9.320;2022-07-23T07:39:10;6.55;;;4.10;;
21564;SDS011;10943;48.738;9.320;2022-07-23T07:41:38;6.65;;;4.40;;
21564;SDS011;10943;48.738;9.320;2022-07-23T07:44:06;5.45;;;4.10;;
21564;SDS011;10943;48.738;9.320;2022-07-23T07:46:51;6.43;;;3.95;;
21564;SDS011;10943;48.738;9.320;2022-07-23T07:49:23;5.85;;;4.20;;
21564;SDS011;10943;48.738;9.320;2022-07-23T07:52:01;8.23;;;4.30;;
21564;SDS011;10943;48.738;9.320;2022-07-23T07:54:33;7.38;;;4.60;;
21564;SDS011;10943;48.738;9.320;2022-07-23T07:57:03;6.55;;;4.40;;
21564;SDS011;10943;48.738;9.320;2022-07-23T07:59:34;6.95;;;4.35;;
21564;SDS011;10943;48.738;9.320;2022-07-23T08:02:03;5.53;;;4.05;;
21564;SDS011;10943;48.738;9.320;2022-07-23T08:04:30;6.45;;;4.13;;
21564;SDS011;10943;48.738;9.320;2022-07-23T08:06:58;5.40;;;3.78;;
21564;SDS011;10943;48.738;9.320;2022-07-23T08:09:26;5.38;;;3.80;;
21564;SDS011;10943;48.738;9.320;2022-07-23T08:11:53;5.57;;;4.05;;
21564;SDS011;10943;48.738;9.320;2022-07-23T08:14:21;5.25;;;3.70;;
21564;SDS011;10943;48.738;9.320;2022-07-23T08:16:51;6.47;;;4.10;;
21564;SDS011;10943;48.738;9.320;2022-07-23T08:19:38;5.32;;;4.00;;
21564;SDS011;10943;48.738;9.320;2022-07-23T08:22:07;8.23;;;3.90;;
21564;SDS011;10943;48.738;9.320;2022-07-23T08:24:37;6.10;;;3.97;;
21564;SDS011;10943;48.738;9.320;2022-07-23T08:27:05;5.75;;;4.15;;
21564;SDS011;10943;48.738;9.320;2022-07-23T08:29:32;5.63;;;4.07;;
21564;SDS011;10943;48.738;9.320;2022-07-23T08:31:59;5.88;;;3.92;;
21564;SDS011;10943;48.738;9.320;2022-07-23T08:34:47;7.82;;;3.80;;
21564;SDS011;10943;48.738;9.320;2022-07-23T08:37:17;8.27;;;4.25;;
21564;SDS011;10943;48.738;9.320;2022-07-23T08:39:44;5.57;;;4.30;;
21564;SDS011;10943;48.738;9.320;2022-07-23T08:42:13;6.38;;;4.60;;
21564;SDS011;10943;48.738;9.320;2022-07-23T08:44:44;7.07;;;4.38;;
21564;SDS011;10943;48.738;9.320;2022-07-23T08:47:15;6.45;;;4.38;;
21564;SDS011;10943;48.738;9.320;2022-07-23T08:49:45;7.88;;;4.80;;
21564;SDS011;10943;48.738;9.320;2022-07-23T08:52:15;6.50;;;4.10;;
21564;SDS011;10943;48.738;9.320;2022-07-23T08:54:43;6.82;;;4.05;;
21564;SDS011;10943;48.738;9.320;2022-07-23T08:57:11;5.20;;;3.85;;
21564;SDS011;10943;48.738;9.320;2022-07-23T08:59:38;7.07;;;4.18;;
21564;SDS011;10943;48.738;9.320;2022-07-23T09:02:07;7.32;;;4.18;;
21564;SDS011;10943;48.738;9.320;2022-07-23T09:04:35;5.78;;;4.20;;
21564;SDS011;10943;48.738;9.320;2022-07-23T09:07:03;7.13;;;3.72;;
21564;SDS011;10943;48.738;9.320;2022-07-23T09:09:30;5.38;;;4.22;;
21564;SDS011;10943;48.738;9.320;2022-07-23T09:12:06;6.10;;;4.25;;
21564;SDS011;10943;48.738;9.320;2022-07-23T09:14:44;7.40;;;4.00;;
21564;SDS011;10943;48.738;9.320;2022-07-23T09:17:16;5.85;;;4.30;;
21564;SDS011;10943;48.738;9.320;2022-07-23T09:19:50;7.00;;;4.15;;
21564;SDS011;10943;48.738;9.320;2022-07-23T09:22:24;7.95;;;4.15;;
21564;SDS011;10943;48.738;9.320;2022-07-23T09:27:48;7.70;;;3.50;;
21564;SDS011;10943;48.738;9.320;2022-07-23T09:30:30;5.30;;;4.00;;
21564;SDS011;10943;48.738;9.320;2022-07-23T09:33:10;8.05;;;4.18;;
21564;SDS011;10943;48.738;9.320;2022-07-23T09:35:46;5.75;;;4.20;;
21564;SDS011;10943;48.738;9.320;2022-07-23T09:38:17;6.15;;;4.10;;
21564;SDS011;10943;48.738;9.320;2022-07-23T09:41:08;6.43;;;3.67;;
21564;SDS011;10943;48.738;9.320;2022-07-23T09:43:38;7.03;;;4.38;;
21564;SDS011;10943;48.738;9.320;2022-07-23T09:46:19;6.53;;;3.70;;
21564;SDS011;10943;48.738;9.320;2022-07-23T09:48:54;6.28;;;3.63;;
21564;SDS011;10943;48.738;9.320;2022-07-23T09:51:24;5.97;;;3.78;;
21564;SDS011;10943;48.738;9.320;2022-07-23T09:53:54;5.95;;;4.00;;
21564;SDS011;10943;48.738;9.320;2022-07-23T09:56:22;5.53;;;4.25;;
21564;SDS011;10943;48.738;9.320;2022-07-23T09:58:54;5.13;;;3.92;;
21564;SDS011;10943;48.738;9.320;2022-07-23T10:01:31;4.10;;;3.58;;
21564;SDS011;10943;48.738;9.320;2022-07-23T10:04:26;5.68;;;3.70;;
21564;SDS011;10943;48.738;9.320;2022-07-23T10:07:14;6.43;;;4.28;;
21564;SDS011;10943;48.738;9.320;2022-07-23T10:10:11;5.93;;;4.03;;
21564;SDS011;10943;48.738;9.320;2022-07-23T10:12:53;5.05;;;3.80;;
21564;SDS011;10943;48.738;9.320;2022-07-23T10:15:38;7.00;;;3.90;;
21564;SDS011;10943;48.738;9.320;2022-07-23T10:18:09;6.95;;;3.92;;
21564;SDS011;10943;48.738;9.320;2022-07-23T10:20:39;5.00;;;4.10;;
21564;SDS011;10943;48.738;9.320;2022-07-23T10:25:59;6.22;;;4.50;;
21564;SDS011;10943;48.738;9.320;2022-07-23T10:35:16;6.05;;;4.22;;
21564;SDS011;10943;48.738;9.320;2022-07-23T10:38:15;5.70;;;4.05;;
21564;SDS011;10943;48.738;9.320;2022-07-23T10:40:57;5.47;;;4.18;;
21564;SDS011;10943;48.738;9.320;2022-07-23T10:43:31;6.38;;;4.07;;
21564;SDS011;10943;48.738;9.320;2022-07-23T10:49:28;5.65;;;4.18;;
21564;SDS011;10943;48.738;9.320;2022-07-23T10:54:42;5.53;;;3.72;;
21564;SDS011;10943;48.738;9.320;2022-07-23T10:57:59;5.97;;;4.00;;
21564;SDS011;10943;48.738;9.320;2022-07-23T11:00:34;6.28;;;4.20;;
21564;SDS011;10943;48.738;9.320;2022-07-23T11:03:04;5.13;;;3.85;;
21564;SDS011;10943;48.738;9.320;2022-07-23T11:05:58;5.95;;;4.03;;
21564;SDS011;10943;48.738;9.320;2022-07-23T11:08:26;6.07;;;3.85;;
21564;SDS011;10943;48.738;9.320;2022-07-23T11:13:30;5.60;;;3.97;;
21564;SDS011;10943;48.738;9.320;2022-07-23T11:24:11;5.70;;;4.10;;
21564;SDS011;10943;48.738;9.320;2022-07-23T11:26:47;6.70;;;4.10;;
21564;SDS011;10943;48.738;9.320;2022-07-23T11:32:01;5.60;;;3.88;;
21564;SDS011;10943;48.738;9.320;2022-07-23T11:34:48;4.85;;;3.80;;
21564;SDS011;10943;48.738;9.320;2022-07-23T11:37:38;5.90;;;4.00;;
21564;SDS011;10943;48.738;9.320;2022-07-23T11:40:08;5.25;;;4.00;;
21564;SDS011;10943;48.738;9.320;2022-07-23T11:42:58;4.80;;;3.90;;
21564;SDS011;10943;48.738;9.320;2022-07-23T11:45:34;6.78;;;3.50;;
21564;SDS011;10943;48.738;9.320;2022-07-23T11:50:56;5.30;;;3.78;;
21564;SDS011;10943;48.738;9.320;2022-07-23T11:53:29;7.38;;;4.15;;
21564;SDS011;10943;48.738;9.320;2022-07-23T11:56:06;5.80;;;4.00;;
21564;SDS011;10943;48.738;9.320;2022-07-23T11:58:39;4.97;;;3.60;;
21564;SDS011;10943;48.738;9.320;2022-07-23T12:01:26;5.22;;;4.00;;
21564;SDS011;10943;48.738;9.320;2022-07-23T12:03:53;6.25;;;3.90;;
21564;SDS011;10943;48.738;9.320;2022-07-23T12:06:20;5.40;;;3.80;;
21564;SDS011;10943;48.738;9.320;2022-07-23T12:08:48;5.65;;;4.00;;
21564;SDS011;10943;48.738;9.320;2022-07-23T12:11:15;5.32;;;4.00;;
21564;SDS011;10943;48.738;9.320;2022-07-23T12:13:42;5.72;;;4.00;;
21564;SDS011;10943;48.738;9.320;2022-07-23T12:16:10;5.65;;;3.97;;
21564;SDS011;10943;48.738;9.320;2022-07-23T12:18:37;5.80;;;4.22;;
21564;SDS011;10943;48.738;9.320;2022-07-23T12:24:05;5.20;;;3.80;;
21564;SDS011;10943;48.738;9.320;2022-07-23T12:26:34;4.93;;;3.80;;
21564;SDS011;10943;48.738;9.320;2022-07-23T12:29:01;4.78;;;3.72;;
21564;SDS011;10943;48.738;9.320;2022-07-23T12:31:28;6.40;;;3.90;;
21564;SDS011;10943;48.738;9.320;2022-07-23T12:33:56;6.72;;;3.63;;
21564;SDS011;10943;48.738;9.320;2022-07-23T12:36:38;7.00;;;4.15;;
21564;SDS011;10943;48.738;9.320;2022-07-23T12:39:10;7.55;;;4.75;;
21564;SDS011;10943;48.738;9.320;2022-07-23T12:41:52;6.82;;;4.00;;
21564;SDS011;10943;48.738;9.320;2022-07-23T12:44:20;7.68;;;4.10;;
21564;SDS011;10943;48.738;9.320;2022-07-23T12:46:53;8.75;;;3.92;;
21564;SDS011;10943;48.738;9.320;2022-07-23T12:49:27;5.55;;;4.10;;
21564;SDS011;10943;48.738;9.320;2022-07-23T12:51:56;5.65;;;4.20;;
21564;SDS011;10943;48.738;9.320;2022-07-23T12:54:26;7.05;;;4.65;;
21564;SDS011;10943;48.738;9.320;2022-07-23T12:56:55;6.00;;;4.28;;
21564;SDS011;10943;48.738;9.320;2022-07-23T12:59:23;5.18;;;4.38;;
21564;SDS011;10943;48.738;9.320;2022-07-23T13:01:56;5.38;;;4.35;;
21564;SDS011;10943;48.738;9.320;2022-07-23T13:04:28;6.30;;;4.55;;
21564;SDS011;10943;48.738;9.320;2022-07-23T13:06:58;5.75;;;4.55;;
21564;SDS011;10943;48.738;9.320;2022-07-23T13:09:31;5.80;;;4.30;;
21564;SDS011;10943;48.738;9.320;2022-07-23T13:12:07;6.65;;;4.53;;
21564;SDS011;10943;48.738;9.320;2022-07-23T13:14:37;5.53;;;4.93;;
21564;SDS011;10943;48.738;9.320;2022-07-23T13:17:05;6.25;;;4.50;;
21564;SDS011;10943;48.738;9.320;2022-07-23T13:19:33;6.78;;;4.82;;
21564;SDS011;10943;48.738;9.320;2022-07-23T13:22:01;7.32;;;4.70;;
21564;SDS011;10943;48.738;9.320;2022-07-23T13:24:35;7.00;;;4.72;;
21564;SDS011;10943;48.738;9.320;2022-07-23T13:27:05;6.95;;;4.50;;
21564;SDS011;10943;48.738;9.320;2022-07-23T13:29:42;6.25;;;4.53;;
21564;SDS011;10943;48.738;9.320;2022-07-23T13:32:12;6.80;;;4.78;;
21564;SDS011;10943;48.738;9.320;2022-07-23T13:34:40;6.25;;;4.55;;
21564;SDS011;10943;48.738;9.320;2022-07-23T13:37:08;6.65;;;4.28;;
21564;SDS011;10943;48.738;9.320;2022-07-23T13:39:35;6.68;;;4.72;;
21564;SDS011;10943;48.738;9.320;2022-07-23T13:42:04;5.88;;;4.43;;
21564;SDS011;10943;48.738;9.320;2022-07-23T13:44:34;6.47;;;4.25;;
21564;SDS011;10943;48.738;9.320;2022-07-23T13:47:02;7.13;;;4.88;;
21564;SDS011;10943;48.738;9.320;2022-07-23T13:49:30;7.18;;;4.75;;
21564;SDS011;10943;48.738;9.320;2022-07-23T13:52:01;6.32;;;4.80;;
21564;SDS011;10943;48.738;9.320;2022-07-23T13:54:33;6.07;;;4.90;;
21564;SDS011;10943;48.738;9.320;2022-07-23T13:57:01;6.43;;;4.97;;
21564;SDS011;10943;48.738;9.320;2022-07-23T13:59:29;6.45;;;5.00;;
21564;SDS011;10943;48.738;9.320;2022-07-23T14:01:56;11.80;;;5.47;;
21564;SDS011;10943;48.738;9.320;2022-07-23T14:04:44;6.38;;;4.63;;
21564;SDS011;10943;48.738;9.320;2022-07-23T14:07:11;8.50;;;4.70;;
21564;SDS011;10943;48.738;9.320;2022-07-23T14:09:39;8.80;;;5.35;;
21564;SDS011;10943;48.738;9.320;2022-07-23T14:12:07;6.35;;;4.97;;
21564;SDS011;10943;48.738;9.320;2022-07-23T14:14:37;7.07;;;5.38;;
21564;SDS011;10943;48.738;9.320;2022-07-23T14:17:05;10.38;;;6.63;;
21564;SDS011;10943;48.738;9.320;2022-07-23T14:19:37;7.03;;;5.50;;
21564;SDS011;10943;48.738;9.320;2022-07-23T14:22:05;6.38;;;5.15;;
21564;SDS011;10943;48.738;9.320;2022-07-23T14:24:33;7.88;;;5.00;;
21564;SDS011;10943;48.738;9.320;2022-07-23T14:27:02;7.60;;;5.30;;
21564;SDS011;10943;48.738;9.320;2022-07-23T14:29:31;6.72;;;5.05;;
21564;SDS011;10943;48.738;9.320;2022-07-23T14:32:00;6.50;;;5.07;;
21564;SDS011;10943;48.738;9.320;2022-07-23T14:34:29;6.10;;;5.03;;
21564;SDS011;10943;48.738;9.320;2022-07-23T14:36:57;6.75;;;4.90;;
21564;SDS011;10943;48.738;9.320;2022-07-23T14:39:26;6.60;;;5.13;;
21564;SDS011;10943;48.738;9.320;2022-07-23T14:41:54;7.93;;;5.35;;
21564;SDS011;10943;48.738;9.320;2022-07-23T14:44:21;7.40;;;5.78;;
21564;SDS011;10943;48.738;9.320;2022-07-23T14:46:49;8.57;;;5.38;;
21564;SDS011;10943;48.738;9.320;2022-07-23T14:49:16;8.25;;;5.13;;
21564;SDS011;10943;48.738;9.320;2022-07-23T14:51:45;7.07;;;5.72;;
21564;SDS011;10943;48.738;9.320;2022-07-23T14:54:12;7.13;;;5.22;;
21564;SDS011;10943;48.738;9.320;2022-07-23T14:56:40;6.68;;;5.50;;
21564;SDS011;10943;48.738;9.320;2022-07-23T14:59:10;7.00;;;5.22;;
21564;SDS011;10943;48.738;9.320;2022-07-23T15:01:40;6.55;;;5.50;;
21564;SDS011;10943;48.738;9.320;2022-07-23T15:04:08;6.65;;;5.38;;
21564;SDS011;10943;48.738;9.320;2022-07-23T15:06:56;5.85;;;4.88;;
21564;SDS011;10943;48.738;9.320;2022-07-23T15:09:24;7.35;;;5.13;;
21564;SDS011;10943;48.738;9.320;2022-07-23T15:11:51;6.85;;;5.35;;
21564;SDS011;10943;48.738;9.320;2022-07-23T15:14:19;8.43;;;5.93;;
21564;SDS011;10943;48.738;9.320;2022-07-23T15:16:54;6.43;;;5.25;;
21564;SDS011;10943;48.738;9.320;2022-07-23T15:19:22;5.65;;;4.75;;
21564;SDS011;10943;48.738;9.320;2022-07-23T15:21:50;7.22;;;5.15;;
21564;SDS011;10943;48.738;9.320;2022-07-23T15:24:18;5.95;;;4.93;;
21564;SDS011;10943;48.738;9.320;2022-07-23T15:26:45;8.18;;;5.32;;
21564;SDS011;10943;48.738;9.320;2022-07-23T15:29:13;6.75;;;5.22;;
21564;SDS011;10943;48.738;9.320;2022-07-23T15:31:41;6.55;;;5.25;;
21564;SDS011;10943;48.738;9.320;2022-07-23T15:34:08;7.10;;;5.00;;
21564;SDS011;10943;48.738;9.320;2022-07-23T15:36:36;7.05;;;5.25;;
21564;SDS011;10943;48.738;9.320;2022-07-23T15:39:03;7.82;;;4.63;;
21564;SDS011;10943;48.738;9.320;2022-07-23T15:41:33;5.85;;;5.05;;
21564;SDS011;10943;48.738;9.320;2022-07-23T15:44:00;6.45;;;4.80;;
21564;SDS011;10943;48.738;9.320;2022-07-23T15:46:47;7.90;;;5.53;;
21564;SDS011;10943;48.738;9.320;2022-07-23T15:49:15;7.38;;;5.22;;
21564;SDS011;10943;48.738;9.320;2022-07-23T15:51:44;7.43;;;5.13;;
21564;SDS011;10943;48.738;9.320;2022-07-23T15:54:13;7.07;;;5.10;;